createdAt,value
2023-10-23T00:00:09.065Z,99048.20
2023-10-23T00:01:15.246Z,99053.55
2023-10-23T00:02:20.263Z,99050.88
2023-10-23T00:03:23.373Z,99052.72
2023-10-23T00:04:26.367Z,99050.88
2023-10-23T00:05:29.918Z,99049.17
2023-10-23T00:06:33.373Z,99047.36
2023-10-23T00:07:36.342Z,99049.03
2023-10-23T00:08:40.848Z,99049.17
2023-10-23T00:09:44.299Z,99048.20
2023-10-23T00:10:47.614Z,99047.36
2023-10-23T00:11:52.433Z,99050.03
2023-10-23T00:12:56.733Z,99053.55
2023-10-23T00:13:59.964Z,99050.03
2023-10-23T00:15:03.204Z,99053.55
2023-10-23T00:16:06.457Z,99050.88
2023-10-23T00:17:09.402Z,99046.48
2023-10-23T00:18:13.406Z,99044.68
2023-10-23T00:19:17.524Z,99045.52
2023-10-23T00:20:21.192Z,99045.52
2023-10-23T00:21:25.164Z,99033.82
2023-10-23T00:22:30.291Z,99039.18
2023-10-23T00:23:33.038Z,99038.17
2023-10-23T00:24:35.778Z,99034.66
2023-10-23T00:25:38.916Z,99038.17
2023-10-23T00:26:41.984Z,99030.13
2023-10-23T00:27:45.137Z,99032.81
2023-10-23T00:28:49.119Z,99036.23
2023-10-23T00:29:52.879Z,99026.48
2023-10-23T00:30:55.965Z,99023.80
2023-10-23T00:31:59.157Z,99024.53
2023-10-23T00:33:02.574Z,99036.23
2023-10-23T00:34:06.554Z,99022.83
2023-10-23T00:35:09.557Z,99028.19
2023-10-23T00:36:14.890Z,99025.51
2023-10-23T00:37:17.997Z,99028.09
2023-10-23T00:38:21.026Z,99024.53
2023-10-23T00:39:24.477Z,99034.39
2023-10-23T00:40:27.582Z,99032.58
2023-10-23T00:41:30.590Z,99036.12
2023-10-23T00:42:36.104Z,99032.58
2023-10-23T00:43:39.386Z,99032.58
2023-10-23T00:44:42.525Z,99028.92
2023-10-23T00:47:13.749Z,99029.70
2023-10-23T00:48:21.385Z,99027.11
2023-10-23T00:49:24.797Z,99027.11
2023-10-23T00:50:29.014Z,99027.11
2023-10-23T00:51:32.182Z,99028.92
2023-10-23T00:52:36.439Z,99029.79
2023-10-23T00:53:39.950Z,99027.11
2023-10-23T00:54:42.785Z,99027.95
2023-10-23T00:55:46.776Z,99023.42
2023-10-23T00:56:50.326Z,99020.74
2023-10-23T00:57:54.774Z,99033.31
2023-10-23T00:58:58.609Z,99025.27
2023-10-23T01:00:02.062Z,99029.66
2023-10-23T01:01:06.018Z,99023.42
2023-10-23T01:02:10.156Z,99032.34
2023-10-23T01:03:12.983Z,99031.47
2023-10-23T01:04:16.240Z,99034.15
2023-10-23T01:05:18.959Z,99034.15
2023-10-23T01:06:21.932Z,99037.70
2023-10-23T01:07:25.391Z,99043.06
2023-10-23T01:08:28.384Z,99038.53
2023-10-23T01:09:31.361Z,99037.70
2023-10-23T01:10:34.706Z,99032.34
2023-10-23T01:11:37.652Z,99029.66
2023-10-23T01:12:41.724Z,99030.49
2023-10-23T01:13:44.569Z,99035.02
2023-10-23T01:14:48.150Z,99035.02
2023-10-23T01:15:52.854Z,99031.47
2023-10-23T01:16:56.660Z,99034.05
2023-10-23T01:18:03.527Z,99039.51
2023-10-23T01:19:07.150Z,99035.02
2023-10-23T01:20:11.532Z,99030.63
2023-10-23T01:21:14.434Z,99033.17
2023-10-23T01:22:18.007Z,99029.66
2023-10-23T01:23:25.394Z,99021.61
2023-10-23T01:24:28.727Z,99026.98
2023-10-23T01:25:31.638Z,99032.34
2023-10-23T01:26:34.556Z,99029.52
2023-10-23T01:27:39.196Z,99026.98
2023-10-23T01:28:42.252Z,99025.13
2023-10-23T01:29:45.234Z,99031.36
2023-10-23T01:30:50.248Z,99033.17
2023-10-23T01:31:54.300Z,99031.36
2023-10-23T01:32:58.646Z,99034.88
2023-10-23T01:34:01.364Z,99034.88
2023-10-23T01:35:06.426Z,99031.36
2023-10-23T01:36:09.473Z,99041.08
2023-10-23T01:37:12.208Z,99033.17
2023-10-23T01:38:16.008Z,99034.88
2023-10-23T01:39:18.832Z,99036.72
2023-10-23T01:40:21.713Z,99034.88
2023-10-23T01:41:25.644Z,99040.24
2023-10-23T01:42:30.569Z,99037.56
2023-10-23T01:43:33.484Z,99040.24
2023-10-23T01:45:49.005Z,99031.28
2023-10-23T01:46:53.371Z,99046.44
2023-10-23T01:47:57.292Z,99034.05
2023-10-23T01:49:00.189Z,99039.41
2023-10-23T01:50:04.608Z,99036.72
2023-10-23T01:51:08.161Z,99045.47
2023-10-23T01:52:11.498Z,99044.62
2023-10-23T01:53:14.208Z,99044.62
2023-10-23T01:54:17.031Z,99047.31
2023-10-23T01:55:21.000Z,99045.47
2023-10-23T01:56:24.088Z,99046.30
2023-10-23T01:57:26.991Z,99043.63
2023-10-23T01:58:30.020Z,99038.27
2023-10-23T01:59:33.513Z,99043.63
2023-10-23T02:00:36.567Z,99034.28
2023-10-23T02:01:40.548Z,99034.28
2023-10-23T02:02:44.300Z,99043.63
2023-10-23T02:03:47.326Z,99041.95
2023-10-23T02:04:50.517Z,99043.63
2023-10-23T02:05:54.166Z,99040.11
2023-10-23T02:06:57.547Z,99038.40
2023-10-23T02:08:02.343Z,99041.08
2023-10-23T02:09:05.721Z,99041.95
2023-10-23T02:10:10.403Z,99046.30
2023-10-23T02:11:13.144Z,99042.79
2023-10-23T02:12:15.974Z,99041.81
2023-10-23T02:13:19.867Z,99033.77
2023-10-23T02:14:22.703Z,99033.77
2023-10-23T02:15:25.727Z,99038.27
2023-10-23T02:16:29.555Z,99031.92
2023-10-23T02:17:32.891Z,99031.09
2023-10-23T02:18:36.226Z,99038.16
2023-10-23T02:19:39.027Z,99050.70
2023-10-23T02:20:43.107Z,99039.97
2023-10-23T02:21:52.270Z,99044.49
2023-10-23T02:22:55.493Z,99043.52
2023-10-23T02:23:59.172Z,99049.86
2023-10-23T02:25:02.263Z,99053.38
2023-10-23T02:26:05.601Z,99053.38
2023-10-23T02:27:08.359Z,99049.86
2023-10-23T02:28:11.172Z,99050.70
2023-10-23T02:29:14.861Z,99045.33
2023-10-23T02:30:18.715Z,99045.33
2023-10-23T02:31:24.425Z,99047.04
2023-10-23T02:32:27.344Z,99041.68
2023-10-23T02:33:32.254Z,99048.88
2023-10-23T02:34:39.238Z,99042.52
2023-10-23T02:35:44.549Z,99049.72
2023-10-23T02:36:47.984Z,99052.41
2023-10-23T02:37:52.808Z,99056.92
2023-10-23T02:38:55.797Z,99055.08
2023-10-23T02:39:58.793Z,99065.81
2023-10-23T02:41:02.132Z,99054.25
2023-10-23T02:42:07.396Z,99055.92
2023-10-23T02:43:11.538Z,99051.56
2023-10-23T02:44:14.842Z,99057.77
2023-10-23T02:45:17.620Z,99053.23
2023-10-23T02:46:20.795Z,99056.79
2023-10-23T02:47:23.630Z,99052.41
2023-10-23T02:48:26.401Z,99056.79
2023-10-23T02:49:30.374Z,99043.38
2023-10-23T02:50:33.911Z,99045.20
2023-10-23T02:51:38.817Z,99049.59
2023-10-23T02:52:42.168Z,99052.27
2023-10-23T02:53:45.777Z,99052.27
2023-10-23T02:54:52.511Z,99057.63
2023-10-23T02:55:55.657Z,99057.63
2023-10-23T02:56:58.792Z,99057.63
2023-10-23T02:58:01.544Z,99055.68
2023-10-23T02:59:04.771Z,99059.33
2023-10-23T03:00:09.698Z,99057.63
2023-10-23T03:02:30.905Z,99057.55
2023-10-23T03:03:34.070Z,99058.47
2023-10-23T03:04:36.917Z,99060.17
2023-10-23T03:05:40.028Z,99061.15
2023-10-23T03:06:43.057Z,99065.53
2023-10-23T03:07:46.160Z,99061.05
2023-10-23T03:08:49.098Z,99055.68
2023-10-23T03:09:52.690Z,99053.00
2023-10-23T03:10:55.828Z,99063.72
2023-10-23T03:11:58.600Z,99057.49
2023-10-23T03:13:01.382Z,99048.47
2023-10-23T03:14:04.543Z,99061.88
2023-10-23T03:15:09.263Z,99063.72
2023-10-23T03:16:15.601Z,99073.45
2023-10-23T03:17:19.148Z,99061.05
2023-10-23T03:18:22.089Z,99076.99
2023-10-23T03:19:26.124Z,99068.08
2023-10-23T03:20:30.186Z,99067.11
2023-10-23T03:21:34.138Z,99060.91
2023-10-23T03:22:36.952Z,99061.75
2023-10-23T03:23:40.350Z,99061.75
2023-10-23T03:24:43.402Z,99063.59
2023-10-23T03:25:46.265Z,99066.27
2023-10-23T03:26:50.407Z,99063.45
2023-10-23T03:27:53.396Z,99060.91
2023-10-23T03:28:56.480Z,99059.06
2023-10-23T03:29:59.234Z,99069.65
2023-10-23T03:31:04.235Z,99068.81
2023-10-23T03:32:07.307Z,99068.81
2023-10-23T03:33:10.235Z,99068.81
2023-10-23T03:34:14.722Z,99068.81
2023-10-23T03:35:19.228Z,99068.81
2023-10-23T03:36:23.750Z,99070.63
2023-10-23T03:37:26.733Z,99066.97
2023-10-23T03:38:31.044Z,99067.95
2023-10-23T03:39:37.353Z,99068.95
2023-10-23T03:40:41.000Z,99073.45
2023-10-23T03:41:43.927Z,99073.45
2023-10-23T03:42:52.607Z,99072.74
2023-10-23T03:43:55.493Z,99071.03
2023-10-23T03:44:58.374Z,99072.88
2023-10-23T03:46:04.440Z,99073.02
2023-10-23T03:47:07.370Z,99083.00
2023-10-23T03:48:10.319Z,99076.80
2023-10-23T03:49:13.905Z,99084.84
2023-10-23T03:50:17.268Z,99076.94
2023-10-23T03:51:20.777Z,99073.52
2023-10-23T03:52:24.035Z,99078.05
2023-10-23T03:53:27.008Z,99076.34
2023-10-23T03:54:30.354Z,99074.59
2023-10-23T03:55:38.087Z,99079.95
2023-10-23T03:56:41.379Z,99078.28
2023-10-23T03:57:44.300Z,99076.58
2023-10-23T03:58:48.171Z,99081.06
2023-10-23T03:59:51.034Z,99082.06
2023-10-23T04:00:55.232Z,99079.39
2023-10-23T04:01:58.098Z,99078.52
2023-10-23T04:03:01.238Z,99077.68
2023-10-23T04:04:04.710Z,99079.63
2023-10-23T04:05:08.971Z,99080.50
2023-10-23T04:07:24.426Z,99081.42
2023-10-23T04:08:28.328Z,99075.97
2023-10-23T04:09:34.019Z,99087.66
2023-10-23T04:10:37.132Z,99092.05
2023-10-23T04:11:40.131Z,99087.66
2023-10-23T04:12:43.050Z,99088.67
2023-10-23T04:13:46.207Z,99095.70
2023-10-23T04:14:48.862Z,99087.66
2023-10-23T04:15:56.687Z,99094.87
2023-10-23T04:16:59.585Z,99101.94
2023-10-23T04:18:03.346Z,99091.22
2023-10-23T04:19:06.108Z,99100.23
2023-10-23T04:20:11.663Z,99091.59
2023-10-23T04:21:14.523Z,99091.59
2023-10-23T04:22:17.268Z,99088.91
2023-10-23T04:23:20.218Z,99092.45
2023-10-23T04:24:24.793Z,99087.09
2023-10-23T04:25:27.785Z,99097.08
2023-10-23T04:26:31.641Z,99086.49
2023-10-23T04:27:34.562Z,99085.52
2023-10-23T04:28:37.520Z,99097.95
2023-10-23T04:29:40.955Z,99096.95
2023-10-23T04:30:43.833Z,99096.95
2023-10-23T04:31:46.770Z,99098.66
2023-10-23T04:32:50.623Z,99092.32
2023-10-23T04:33:53.466Z,99095.84
2023-10-23T04:34:58.139Z,99096.71
2023-10-23T04:36:02.311Z,99099.39
2023-10-23T04:37:06.135Z,99101.94
2023-10-23T04:38:08.915Z,99103.75
2023-10-23T04:39:12.097Z,99100.09
2023-10-23T04:40:15.716Z,99109.01
2023-10-23T04:42:34.940Z,99104.58
2023-10-23T04:43:38.149Z,99098.28
2023-10-23T04:44:40.947Z,99103.64
2023-10-23T04:45:44.137Z,99105.32
2023-10-23T04:46:47.043Z,99110.55
2023-10-23T04:47:49.921Z,99109.58
2023-10-23T04:50:09.082Z,99114.77
2023-10-23T04:51:11.913Z,99119.23
2023-10-23T04:52:14.673Z,99116.65
2023-10-23T04:53:18.163Z,99112.26
2023-10-23T04:54:21.059Z,99121.17
2023-10-23T04:55:24.165Z,99121.17
2023-10-23T04:56:27.746Z,99121.17
2023-10-23T04:57:30.543Z,99123.85
2023-10-23T04:58:33.811Z,99122.98
2023-10-23T04:59:38.776Z,99131.29
2023-10-23T05:00:41.894Z,99124.48
2023-10-23T05:02:57.509Z,99121.17
2023-10-23T05:05:13.801Z,99127.38
2023-10-23T05:06:17.418Z,99137.15
2023-10-23T05:07:20.057Z,99135.47
2023-10-23T05:08:22.921Z,99130.95
2023-10-23T05:09:25.927Z,99142.64
2023-10-23T05:11:40.613Z,99127.64
2023-10-23T05:12:46.491Z,99140.09
2023-10-23T05:13:50.998Z,99133.05
2023-10-23T05:14:54.260Z,99136.58
2023-10-23T05:17:19.332Z,99132.39
2023-10-23T05:18:23.882Z,99132.45
2023-10-23T05:19:26.912Z,99130.61
2023-10-23T05:20:30.334Z,99146.69
2023-10-23T05:21:35.346Z,99144.01
2023-10-23T05:22:38.282Z,99136.84
2023-10-23T05:23:41.796Z,99138.65
2023-10-23T05:24:47.859Z,99138.78
2023-10-23T05:25:51.042Z,99145.98
2023-10-23T05:26:55.224Z,99142.44
2023-10-23T05:27:58.500Z,99143.44
2023-10-23T05:29:01.659Z,99145.24
2023-10-23T05:31:20.643Z,99148.40
2023-10-23T05:32:23.785Z,99146.73
2023-10-23T05:33:26.428Z,99152.09
2023-10-23T05:34:30.201Z,99167.34
2023-10-23T05:35:33.763Z,99159.30
2023-10-23T05:36:36.782Z,99155.87
2023-10-23T05:37:40.458Z,99148.10
2023-10-23T05:38:44.250Z,99162.47
2023-10-23T05:39:46.943Z,99156.27
2023-10-23T05:40:53.526Z,99152.75
2023-10-23T05:41:56.269Z,99155.43
2023-10-23T05:42:59.436Z,99170.63
2023-10-23T05:44:02.470Z,99169.66
2023-10-23T05:45:07.770Z,99177.70
2023-10-23T05:46:11.053Z,99162.47
2023-10-23T05:47:15.129Z,99157.11
2023-10-23T05:48:19.451Z,99161.63
2023-10-23T05:49:22.330Z,99170.63
2023-10-23T05:50:27.138Z,99160.89
2023-10-23T05:51:30.518Z,99174.28
2023-10-23T05:52:33.236Z,99167.12
2023-10-23T05:53:36.205Z,99180.52
2023-10-23T05:54:39.260Z,99164.70
2023-10-23T05:55:43.143Z,99163.83
2023-10-23T05:56:46.446Z,99162.98
2023-10-23T05:57:49.594Z,99162.02
2023-10-23T05:58:52.300Z,99170.05
2023-10-23T05:59:56.258Z,99181.88
2023-10-23T06:01:09.068Z,99156.05
2023-10-23T06:02:14.817Z,99161.53
2023-10-23T06:03:16.704Z,99162.89
2023-10-23T06:04:20.088Z,99162.05
2023-10-23T06:05:24.645Z,99168.38
2023-10-23T06:06:28.872Z,99163.86
2023-10-23T06:07:33.678Z,99161.05
2023-10-23T06:08:36.696Z,99160.09
2023-10-23T06:09:41.291Z,99162.77
2023-10-23T06:10:45.992Z,99189.68
2023-10-23T06:11:49.718Z,99158.50
2023-10-23T06:12:53.408Z,99170.19
2023-10-23T06:13:58.323Z,99169.34
2023-10-23T06:15:01.323Z,99174.70
2023-10-23T06:16:08.295Z,99168.38
2023-10-23T06:17:11.330Z,99168.38
2023-10-23T06:18:14.582Z,99167.51
2023-10-23T06:19:17.953Z,99163.16
2023-10-23T06:20:20.864Z,99163.98
2023-10-23T06:21:23.453Z,99177.25
2023-10-23T06:22:26.799Z,99174.58
2023-10-23T06:23:35.247Z,99170.09
2023-10-23T06:24:39.033Z,99170.09
2023-10-23T06:25:41.937Z,99165.57
2023-10-23T06:26:45.078Z,99165.57
2023-10-23T06:27:47.852Z,99174.58
2023-10-23T06:28:51.512Z,99173.73
2023-10-23T06:29:54.805Z,99153.18
2023-10-23T06:30:59.662Z,99153.18
2023-10-23T06:32:04.101Z,99171.67
2023-10-23T06:33:06.994Z,99178.13
2023-10-23T06:34:11.200Z,99177.66
2023-10-23T06:35:16.699Z,99161.59
2023-10-23T06:36:19.917Z,99171.31
2023-10-23T06:37:23.923Z,99185.70
2023-10-23T06:38:26.825Z,99182.02
2023-10-23T06:39:31.554Z,99165.11
2023-10-23T06:40:34.513Z,99188.25
2023-10-23T06:41:38.330Z,99166.83
2023-10-23T06:42:41.307Z,99177.41
2023-10-23T06:43:44.259Z,99175.95
2023-10-23T06:44:47.028Z,99183.25
2023-10-23T06:46:01.676Z,99184.11
2023-10-23T06:46:56.644Z,99188.50
2023-10-23T06:47:59.754Z,99178.63
2023-10-23T06:49:04.538Z,99190.05
2023-10-23T06:50:09.291Z,99184.70
2023-10-23T06:51:12.842Z,99180.22
2023-10-23T06:52:17.036Z,99190.05
2023-10-23T06:53:19.760Z,99191.05
2023-10-23T06:54:24.564Z,99181.31
2023-10-23T06:55:30.160Z,99181.44
2023-10-23T06:56:33.109Z,99195.66
2023-10-23T06:57:36.922Z,99193.86
2023-10-23T06:58:39.957Z,99179.59
2023-10-23T06:59:43.932Z,99192.02
2023-10-23T07:00:48.201Z,99177.05
2023-10-23T07:01:51.774Z,99182.62
2023-10-23T07:02:54.664Z,99198.95
2023-10-23T07:03:58.066Z,99195.52
2023-10-23T07:05:01.261Z,99195.52
2023-10-23T07:06:06.473Z,99180.42
2023-10-23T07:07:18.279Z,99184.10
2023-10-23T07:08:15.570Z,99190.30
2023-10-23T07:09:20.344Z,99184.94
2023-10-23T07:10:23.798Z,99195.65
2023-10-23T07:11:27.458Z,99200.04
2023-10-23T07:12:30.227Z,99185.69
2023-10-23T07:13:34.839Z,99195.39
2023-10-23T07:14:37.788Z,99202.09
2023-10-23T07:15:40.893Z,99209.54
2023-10-23T07:16:46.111Z,99233.73
2023-10-23T07:17:50.223Z,99204.28
2023-10-23T07:18:53.405Z,99205.99
2023-10-23T07:19:56.540Z,99205.03
2023-10-23T07:21:01.725Z,99187.25
2023-10-23T07:22:05.725Z,99205.16
2023-10-23T07:23:09.287Z,99210.50
2023-10-23T07:24:12.875Z,99204.06
2023-10-23T07:25:16.092Z,99204.06
2023-10-23T07:26:19.879Z,99215.61
2023-10-23T07:27:23.304Z,99208.42
2023-10-23T07:28:26.557Z,99198.45
2023-10-23T07:29:30.344Z,99195.91
2023-10-23T07:30:33.884Z,99199.42
2023-10-23T07:31:37.693Z,99208.20
2023-10-23T07:32:40.683Z,99208.20
2023-10-23T07:33:43.891Z,99210.75
2023-10-23T07:34:46.657Z,99195.39
2023-10-23T07:35:53.412Z,99199.07
2023-10-23T07:36:54.132Z,99195.39
2023-10-23T07:37:57.397Z,99199.91
2023-10-23T07:39:00.550Z,99198.95
2023-10-23T07:40:07.180Z,99194.44
2023-10-23T07:41:11.367Z,99202.46
2023-10-23T07:42:16.145Z,99200.63
2023-10-23T07:43:18.832Z,99215.01
2023-10-23T07:44:21.648Z,99215.85
2023-10-23T07:45:24.744Z,99199.91
2023-10-23T07:46:28.776Z,99195.52
2023-10-23T07:47:31.500Z,99192.13
2023-10-23T07:48:34.457Z,99192.26
2023-10-23T07:49:37.927Z,99195.78
2023-10-23T07:50:41.292Z,99215.48
2023-10-23T07:51:45.463Z,99211.09
2023-10-23T07:52:50.424Z,99214.77
2023-10-23T07:53:53.198Z,99219.25
2023-10-23T07:54:55.840Z,99212.09
2023-10-23T07:55:59.355Z,99199.92
2023-10-23T07:57:03.394Z,99216.11
2023-10-23T07:58:08.103Z,99214.27
2023-10-23T07:59:11.017Z,99223.14
2023-10-23T08:00:15.717Z,99228.38
2023-10-23T08:01:20.376Z,99213.65
2023-10-23T08:02:23.242Z,99204.06
2023-10-23T08:03:26.717Z,99194.58
2023-10-23T08:04:30.448Z,99204.41
2023-10-23T08:05:33.977Z,99207.83
2023-10-23T08:06:36.791Z,99203.45
2023-10-23T08:07:39.645Z,99214.27
2023-10-23T08:08:44.941Z,99221.44
2023-10-23T08:09:47.846Z,99231.17
2023-10-23T08:10:51.125Z,99202.61
2023-10-23T08:11:54.386Z,99212.44
2023-10-23T08:12:57.216Z,99223.14
2023-10-23T08:14:00.752Z,99212.31
2023-10-23T08:15:04.097Z,99206.75
2023-10-23T08:16:07.446Z,99206.75
2023-10-23T08:17:10.285Z,99188.72
2023-10-23T08:18:22.381Z,99212.69
2023-10-23T08:19:19.716Z,99212.69
2023-10-23T08:21:28.805Z,99223.39
2023-10-23T08:22:32.830Z,99210.75
2023-10-23T08:23:35.715Z,99210.02
2023-10-23T08:24:38.490Z,99210.39
2023-10-23T08:26:58.831Z,99206.13
2023-10-23T08:28:04.559Z,99214.02
2023-10-23T08:29:10.119Z,99225.70
2023-10-23T08:30:14.019Z,99222.89
2023-10-23T08:31:34.168Z,99222.89
2023-10-23T08:32:28.748Z,99208.80
2023-10-23T08:33:28.504Z,99217.08
2023-10-23T08:34:33.512Z,99227.78
2023-10-23T08:35:36.718Z,99227.66
2023-10-23T08:36:40.435Z,99238.48
2023-10-23T08:37:43.700Z,99214.48
2023-10-23T08:38:47.232Z,99237.61
2023-10-23T08:39:51.663Z,99223.98
2023-10-23T08:40:56.066Z,99225.70
2023-10-23T08:42:00.990Z,99227.41
2023-10-23T08:43:04.103Z,99227.41
2023-10-23T08:45:40.265Z,99211.35
2023-10-23T08:46:45.318Z,99218.16
2023-10-23T08:47:48.032Z,99211.84
2023-10-23T08:48:51.339Z,99221.68
2023-10-23T08:49:57.052Z,99234.34
2023-10-23T08:51:00.908Z,99231.87
2023-10-23T08:52:03.978Z,99236.13
2023-10-23T08:53:10.814Z,99226.88
2023-10-23T08:54:16.756Z,99219.34
2023-10-23T08:55:19.581Z,99232.92
2023-10-23T08:56:22.778Z,99243.50
2023-10-23T08:57:25.691Z,99218.59
2023-10-23T08:58:28.271Z,99234.64
2023-10-23T08:59:31.471Z,99241.07
2023-10-23T09:00:35.884Z,99241.07
2023-10-23T09:01:39.941Z,99226.50
2023-10-23T09:02:51.569Z,99239.75
2023-10-23T09:04:02.329Z,99242.30
2023-10-23T09:04:52.295Z,99226.04
2023-10-23T09:05:57.297Z,99242.81
2023-10-23T09:07:01.724Z,99256.06
2023-10-23T09:08:07.055Z,99232.73
2023-10-23T09:09:10.783Z,99221.91
2023-10-23T09:10:15.376Z,99214.61
2023-10-23T09:11:19.234Z,99242.44
2023-10-23T09:13:47.368Z,99261.94
2023-10-23T09:14:51.412Z,99233.20
2023-10-23T09:15:54.675Z,99264.35
2023-10-23T09:16:58.220Z,99252.18
2023-10-23T09:18:04.089Z,99252.18
2023-10-23T09:19:06.846Z,99230.19
2023-10-23T09:21:34.040Z,99260.47
2023-10-23T09:22:37.468Z,99231.98
2023-10-23T09:23:55.207Z,99246.32
2023-10-23T09:24:58.212Z,99238.55
2023-10-23T09:26:02.276Z,99230.27
2023-10-23T09:27:06.324Z,99238.09
2023-10-23T09:28:13.034Z,99229.81
2023-10-23T09:29:15.740Z,99243.07
2023-10-23T09:30:22.223Z,99253.65
2023-10-23T09:31:26.407Z,99241.98
2023-10-23T09:32:31.916Z,99238.44
2023-10-23T09:33:34.592Z,99245.50
2023-10-23T09:34:39.938Z,99242.95
2023-10-23T09:35:43.105Z,99241.23
2023-10-23T09:36:47.684Z,99242.83
2023-10-23T09:37:50.967Z,99234.67
2023-10-23T09:40:10.456Z,99241.63
2023-10-23T09:41:16.027Z,99240.53
2023-10-23T09:42:19.007Z,99262.77
2023-10-23T09:43:24.663Z,99241.62
2023-10-23T09:44:27.774Z,99235.42
2023-10-23T09:45:30.906Z,99237.14
2023-10-23T09:46:34.147Z,99246.97
2023-10-23T09:47:37.777Z,99227.16
2023-10-23T09:48:44.130Z,99232.38
2023-10-23T09:49:47.832Z,99233.01
2023-10-23T09:50:51.276Z,99225.94
2023-10-23T09:51:54.068Z,99227.66
2023-10-23T09:52:57.906Z,99234.69
2023-10-23T09:54:00.794Z,99234.69
2023-10-23T09:55:05.598Z,99248.44
2023-10-23T09:56:09.198Z,99274.36
2023-10-23T09:58:34.264Z,99220.09
2023-10-23T09:59:44.350Z,99239.91
2023-10-23T10:00:48.462Z,99240.27
2023-10-23T10:01:51.699Z,99250.98
2023-10-23T10:02:55.748Z,99230.41
2023-10-23T10:04:00.771Z,99239.31
2023-10-23T10:05:07.042Z,99244.41
2023-10-23T10:06:16.119Z,99241.49
2023-10-23T10:07:25.297Z,99229.83
2023-10-23T10:08:28.140Z,99238.58
2023-10-23T10:09:31.264Z,99265.12
2023-10-23T10:10:36.247Z,99233.01
2023-10-23T10:12:56.733Z,99235.56
2023-10-23T10:13:59.555Z,99230.08
2023-10-23T10:15:04.639Z,99247.98
2023-10-23T10:16:09.566Z,99230.92
2023-10-23T10:18:24.346Z,99249.57
2023-10-23T10:19:28.963Z,99251.25
2023-10-23T10:20:33.869Z,99252.12
2023-10-23T10:21:53.527Z,99251.25
2023-10-23T10:23:12.295Z,99244.92
2023-10-23T10:24:18.794Z,99245.05
2023-10-23T10:25:21.672Z,99238.83
2023-10-23T10:26:25.391Z,99247.10
2023-10-23T10:27:30.093Z,99243.71
2023-10-23T10:28:33.254Z,99237.48
2023-10-23T10:29:36.139Z,99242.84
2023-10-23T10:30:45.820Z,99249.06
2023-10-23T10:32:10.967Z,99247.35
2023-10-23T10:34:31.462Z,99251.75
2023-10-23T10:35:41.540Z,99249.91
2023-10-23T10:36:45.345Z,99251.73
2023-10-23T10:37:41.239Z,99257.93
2023-10-23T10:38:44.153Z,99245.39
2023-10-23T10:39:53.645Z,99253.33
2023-10-23T10:41:05.902Z,99249.53
2023-10-23T10:42:11.937Z,99252.12
2023-10-23T10:43:20.005Z,99254.80
2023-10-23T10:44:23.219Z,99258.31
2023-10-23T10:45:28.646Z,99249.31
2023-10-23T10:46:32.157Z,99260.73
2023-10-23T10:47:40.103Z,99257.09
2023-10-23T10:48:44.480Z,99252.59
2023-10-23T10:49:48.870Z,99269.52
2023-10-23T10:50:55.204Z,99271.08
2023-10-23T10:53:20.848Z,99261.36
2023-10-23T10:54:24.697Z,99254.17
2023-10-23T10:55:27.654Z,99254.05
2023-10-23T10:56:32.039Z,99249.45
2023-10-23T10:57:34.923Z,99262.83
2023-10-23T10:58:39.259Z,99258.31
2023-10-23T10:59:42.001Z,99262.08
2023-10-23T11:00:46.315Z,99264.16
2023-10-23T11:01:49.891Z,99250.88
2023-10-23T11:02:56.243Z,99260.61
2023-10-23T11:03:57.947Z,99262.45
2023-10-23T11:05:06.166Z,99280.44
2023-10-23T11:06:10.813Z,99270.73
2023-10-23T11:07:15.124Z,99276.08
2023-10-23T11:08:18.463Z,99266.09
2023-10-23T11:09:24.212Z,99271.56
2023-10-23T11:10:28.185Z,99273.41
2023-10-23T11:11:32.454Z,99260.73
2023-10-23T11:12:35.716Z,99276.80
2023-10-23T11:13:40.952Z,99280.31
2023-10-23T11:14:44.795Z,99272.66
2023-10-23T11:15:47.859Z,99273.02
2023-10-23T11:16:51.852Z,99260.73
2023-10-23T11:17:55.785Z,99283.73
2023-10-23T11:18:59.865Z,99276.41
2023-10-23T11:21:25.740Z,99279.23
2023-10-23T11:22:28.407Z,99278.25
2023-10-23T11:23:31.552Z,99296.02
2023-10-23T11:24:34.495Z,99297.95
2023-10-23T11:25:37.470Z,99284.69
2023-10-23T11:26:41.015Z,99291.13
2023-10-23T11:27:47.043Z,99303.03
2023-10-23T11:28:50.238Z,99300.60
2023-10-23T11:29:53.248Z,99322.13
2023-10-23T11:30:58.796Z,99325.16
2023-10-23T11:32:01.530Z,99299.49
2023-10-23T11:33:07.910Z,99310.31
2023-10-23T11:34:11.637Z,99314.67
2023-10-23T11:35:14.675Z,99307.28
2023-10-23T11:36:19.096Z,99279.44
2023-10-23T11:37:22.584Z,99296.00
2023-10-23T11:39:48.036Z,99314.73
2023-10-23T11:40:52.371Z,99297.53
2023-10-23T11:43:14.864Z,99292.33
2023-10-23T11:44:19.036Z,99311.78
2023-10-23T11:45:22.955Z,99304.60
2023-10-23T11:46:26.380Z,99295.49
2023-10-23T11:47:31.295Z,99298.67
2023-10-23T11:49:50.892Z,99306.11
2023-10-23T11:50:53.836Z,99294.19
2023-10-23T11:51:57.165Z,99297.49
2023-10-23T11:53:00.463Z,99326.69
2023-10-23T11:54:04.888Z,99292.02
2023-10-23T11:55:11.103Z,99286.66
2023-10-23T11:56:13.883Z,99298.33
2023-10-23T11:57:17.694Z,99289.34
2023-10-23T11:58:33.573Z,99314.02
2023-10-23T11:59:45.429Z,99347.73
2023-10-23T12:00:50.238Z,99303.10
2023-10-23T12:01:57.637Z,99336.19
2023-10-23T12:03:00.610Z,99298.09
2023-10-23T12:04:07.053Z,99299.30
2023-10-23T12:06:26.044Z,99298.71
2023-10-23T12:07:28.682Z,99309.16
2023-10-23T12:08:32.325Z,99359.17
2023-10-23T12:09:35.125Z,99300.63
2023-10-23T12:10:38.886Z,99302.58
2023-10-23T12:11:42.121Z,99310.48
2023-10-23T12:12:45.411Z,99301.38
2023-10-23T12:13:48.109Z,99321.79
2023-10-23T12:14:52.655Z,99292.47
2023-10-23T12:15:55.694Z,99311.95
2023-10-23T12:17:00.267Z,99301.01
2023-10-23T12:19:20.267Z,99310.52
2023-10-23T12:20:24.310Z,99304.65
2023-10-23T12:21:27.275Z,99345.05
2023-10-23T12:22:30.172Z,99356.73
2023-10-23T12:23:32.998Z,99329.23
2023-10-23T12:24:36.286Z,99308.67
2023-10-23T12:25:38.827Z,99317.69
2023-10-23T12:26:41.716Z,99317.69
2023-10-23T12:27:45.498Z,99316.70
2023-10-23T12:28:48.691Z,99324.61
2023-10-23T12:29:53.243Z,99313.81
2023-10-23T12:30:57.095Z,99323.64
2023-10-23T12:32:02.555Z,99323.77
2023-10-23T12:33:19.882Z,99331.08
2023-10-23T12:34:12.129Z,99315.47
2023-10-23T12:35:17.296Z,99321.79
2023-10-23T12:36:21.150Z,99314.75
2023-10-23T12:37:27.355Z,99312.92
2023-10-23T12:39:44.724Z,99301.14
2023-10-23T12:40:49.725Z,99310.62
2023-10-23T12:41:54.585Z,99302.47
2023-10-23T12:42:57.617Z,99305.99
2023-10-23T12:44:00.992Z,99308.55
2023-10-23T12:45:04.536Z,99310.14
2023-10-23T12:46:08.539Z,99311.13
2023-10-23T12:47:12.118Z,99311.71
2023-10-23T12:48:15.116Z,99339.31
2023-10-23T12:49:18.288Z,99322.42
2023-10-23T12:50:21.313Z,99320.58
2023-10-23T12:51:27.588Z,99315.23
2023-10-23T12:52:30.518Z,99328.61
2023-10-23T12:53:34.644Z,99328.85
2023-10-23T12:54:37.724Z,99323.50
2023-10-23T12:55:43.218Z,99338.59
2023-10-23T12:56:46.154Z,99331.41
2023-10-23T12:57:49.047Z,99341.03
2023-10-23T12:58:51.764Z,99335.80
2023-10-23T12:59:55.883Z,99324.38
2023-10-23T13:00:59.869Z,99332.02
2023-10-23T13:02:04.059Z,99341.25
2023-10-23T13:03:06.796Z,99337.09
2023-10-23T13:04:11.779Z,99329.91
2023-10-23T13:05:14.994Z,99328.95
2023-10-23T13:06:20.525Z,99334.19
2023-10-23T13:07:23.386Z,99330.66
2023-10-23T13:08:26.010Z,99328.95